Time;durP1;ratioP1;P1;durP2;ratioP2;P2;SDS_P1;SDS_P2;PMS_P1;PMS_P2;Temp;Humidity;BMP_temperature;BMP_pressure;BME280_temperature;BME280_humidity;BME280_pressure;Samples;Min_cycle;Max_cycle;Signal;HPM_P1;HPM_P2
2022/10/16 00:01:43;;;;;;;1.83;1.30;;;16.60;99.90;;;19.43;58.80;97479.50;4907862;29;20061;-45
2022/10/16 00:04:12;;;;;;;2.53;1.30;;;16.50;99.90;;;19.40;58.85;97471.84;4907064;29;20066;-47
2022/10/16 00:06:40;;;;;;;2.33;1.25;;;16.50;99.90;;;19.41;58.73;97478.91;4907051;29;20049;-45
2022/10/16 00:09:09;;;;;;;1.58;1.10;;;16.50;99.90;;;19.42;58.67;97470.56;4907106;29;20242;-48
2022/10/16 00:11:39;;;;;;;8.88;1.40;;;16.50;99.90;;;19.44;58.77;97470.34;4906997;29;20048;-45
2022/10/16 00:14:12;;;;;;;2.58;2.13;;;16.50;99.90;;;19.46;58.67;97476.34;4907151;29;20056;-43
2022/10/16 00:16:41;;;;;;;1.77;1.33;;;16.60;99.90;;;19.48;58.70;97464.28;4906984;29;20060;-44
2022/10/16 00:19:11;;;;;;;2.35;0.93;;;16.60;99.90;;;19.46;58.68;97465.53;4907104;29;20055;-44
2022/10/16 00:21:39;;;;;;;2.38;1.42;;;16.60;99.90;;;19.42;58.70;97462.47;4921437;29;20250;-46
2022/10/16 00:24:09;;;;;;;1.98;1.20;;;16.60;99.90;;;19.43;58.67;97461.44;4907752;29;20057;-44
2022/10/16 00:26:39;;;;;;;1.13;1.02;;;16.60;99.90;;;19.47;58.66;97472.59;4906705;29;20044;-46
2022/10/16 00:29:07;;;;;;;3.53;1.33;;;16.60;99.90;;;19.46;58.49;97466.41;4906882;29;20052;-47
2022/10/16 00:31:36;;;;;;;1.60;1.17;;;16.60;99.90;;;19.48;58.40;97463.44;4907352;29;20057;-47
2022/10/16 00:34:04;;;;;;;2.53;1.38;;;16.60;99.90;;;19.52;58.52;97469.22;4906763;29;20256;-43
2022/10/16 00:36:32;;;;;;;3.40;1.48;;;16.70;99.90;;;19.54;58.51;97477.94;4904923;29;20048;-44
2022/10/16 00:39:01;;;;;;;1.75;1.13;;;16.70;99.90;;;19.57;58.69;97485.59;4906923;29;20052;-46
2022/10/16 00:41:30;;;;;;;1.40;1.25;;;16.70;99.90;;;19.57;58.42;97482.91;4906943;29;20071;-46
2022/10/16 00:44:02;;;;;;;1.55;1.23;;;16.70;99.90;;;19.59;58.25;97480.78;4906883;29;20036;-46
2022/10/16 00:46:40;;;;;;;1.90;1.27;;;16.70;99.90;;;19.61;58.17;97478.69;4906437;29;20057;-47
2022/10/16 00:49:16;;;;;;;4.82;1.27;;;16.80;99.90;;;19.59;58.30;97487.00;4906799;29;20049;-44
2022/10/16 00:51:53;;;;;;;3.08;1.45;;;16.80;99.90;;;19.59;58.15;97481.63;4920902;29;20067;-43
2022/10/16 00:54:28;;;;;;;2.35;1.30;;;16.70;99.90;;;19.58;58.12;97476.44;4907103;29;20060;-48
2022/10/16 00:57:03;;;;;;;3.65;1.30;;;16.70;99.90;;;19.59;58.23;97478.91;4921231;29;20063;-46
2022/10/16 00:59:38;;;;;;;2.53;1.52;;;16.70;99.90;;;19.58;58.50;97485.38;4924373;29;20291;-45
2022/10/16 01:02:13;;;;;;;2.60;1.40;;;16.70;99.90;;;19.58;58.21;97488.09;4924624;29;20048;-45
2022/10/16 01:04:49;;;;;;;4.28;1.35;;;16.70;99.90;;;19.57;58.17;97486.41;4910342;29;20346;-46
2022/10/16 01:07:37;;;;;;;1.67;1.40;;;16.70;99.90;;;19.59;58.39;97492.41;4923528;29;20067;-45
2022/10/16 01:10:29;;;;;;;3.30;2.05;;;16.70;99.90;;;19.62;58.35;97481.19;4924747;29;20052;-44
2022/10/16 01:13:09;;;;;;;4.07;1.60;;;16.70;99.90;;;19.61;58.23;97481.41;4910440;29;20049;-46
2022/10/16 01:15:55;;;;;;;2.28;1.40;;;16.70;99.90;;;19.58;58.25;97481.84;4924276;29;20059;-48
2022/10/16 01:18:42;;;;;;;3.45;1.60;;;16.70;99.90;;;19.60;58.25;97485.13;4924057;29;20060;-44
2022/10/16 01:21:21;;;;;;;2.47;1.90;;;16.70;99.90;;;19.60;57.94;97485.97;4924459;29;20060;-46
2022/10/16 01:24:32;;;;;;;2.50;1.70;;;16.70;99.90;;;19.58;58.26;97489.94;4910068;29;20356;-45
2022/10/16 01:27:30;;;;;;;2.35;1.65;;;16.70;99.90;;;19.57;57.95;97491.00;4922202;29;20051;-45
2022/10/16 01:30:23;;;;;;;3.70;1.70;;;16.70;99.90;;;19.54;58.14;97500.38;4924117;29;20368;-42
2022/10/16 01:33:00;;;;;;;4.55;1.40;;;16.60;99.90;;;19.52;58.12;97499.75;4922124;29;20053;-46
2022/10/16 01:35:45;;;;;;;3.70;1.90;;;16.60;99.90;;;19.53;58.09;97487.09;4924089;29;20054;-47
2022/10/16 01:38:35;;;;;;;3.78;1.40;;;16.70;99.90;;;19.50;58.00;97485.66;4923485;29;20052;-44
2022/10/16 01:41:32;;;;;;;4.10;1.50;;;16.60;99.90;;;19.46;58.17;97479.88;4922038;29;20048;-49
2022/10/16 01:44:22;;;;;;;2.20;1.60;;;16.60;99.90;;;19.47;58.11;97481.53;4907969;29;20051;-46
2022/10/16 01:46:53;;;;;;;3.03;1.92;;;16.60;99.90;;;19.47;58.26;97478.81;4908219;29;20052;-47
2022/10/16 01:49:26;;;;;;;5.25;1.83;;;16.60;99.90;;;19.45;58.42;97472.81;4923741;29;20050;-45
2022/10/16 01:51:59;;;;;;;2.88;1.83;;;16.50;99.90;;;19.45;58.26;97470.13;4923948;29;20056;-44
2022/10/16 01:54:31;;;;;;;9.43;1.92;;;16.60;99.90;;;19.48;58.20;97468.84;4923246;29;20049;-45
2022/10/16 01:57:01;;;;;;;2.47;1.70;;;16.60;99.90;;;19.51;58.38;97479.22;4923541;29;20125;-48
2022/10/16 01:59:32;;;;;;;6.05;1.83;;;16.60;99.90;;;19.56;58.17;97483.94;4909529;29;20261;-44
2022/10/16 02:02:07;;;;;;;2.25;1.50;;;16.70;99.90;;;19.57;58.23;97478.31;4923820;29;20052;-47
2022/10/16 02:04:45;;;;;;;3.80;1.55;;;16.70;99.90;;;19.60;58.21;97480.59;4908319;29;20346;-44
2022/10/16 02:07:13;;;;;;;4.25;1.83;;;16.70;99.90;;;19.60;58.25;97480.59;4909211;29;20051;-45
2022/10/16 02:09:42;;;;;;;3.53;1.95;;;16.70;99.90;;;19.63;58.19;97482.00;4908476;29;20364;-45
2022/10/16 02:12:26;;;;;;;2.22;1.67;;;16.70;99.90;;;19.61;58.22;97471.41;4923668;29;20050;-47
2022/10/16 02:14:55;;;;;;;3.38;1.63;;;16.70;99.90;;;19.62;58.08;97473.09;4909435;29;20052;-47
2022/10/16 02:17:23;;;;;;;3.22;1.63;;;16.70;99.90;;;19.60;58.13;97477.03;4907768;29;20051;-49
2022/10/16 02:19:54;;;;;;;3.30;1.55;;;16.70;99.90;;;19.61;58.29;97471.41;4923494;29;20063;-46
2022/10/16 02:22:38;;;;;;;3.25;1.70;;;16.70;99.90;;;19.60;58.03;97472.47;4909438;29;20376;-48
2022/10/16 02:25:34;;;;;;;2.40;1.50;;;16.70;99.90;;;19.62;58.14;97475.78;4923169;29;20270;-45
2022/10/16 02:28:08;;;;;;;2.20;1.40;;;16.70;99.90;;;19.60;57.84;97477.03;4908602;29;20048;-47
2022/10/16 02:30:42;;;;;;;3.10;1.60;;;16.60;99.90;;;19.53;58.11;97476.28;4923226;29;20049;-47
2022/10/16 02:33:15;;;;;;;4.97;1.70;;;16.50;99.90;;;19.53;58.14;97484.41;4922383;29;20053;-45
2022/10/16 02:35:47;;;;;;;1.90;1.63;;;16.60;99.90;;;19.55;58.06;97474.19;4922560;29;20060;-47
2022/10/16 02:38:17;;;;;;;2.50;1.60;;;16.60;99.90;;;19.54;57.93;97484.19;4922626;29;20075;-43
2022/10/16 02:40:45;;;;;;;3.22;1.75;;;16.60;99.90;;;19.53;57.88;97476.28;4908837;29;20048;-49
2022/10/16 02:43:14;;;;;;;3.60;1.50;;;16.50;99.90;;;19.50;58.19;97490.22;4923273;29;20059;-42
2022/10/16 02:45:43;;;;;;;1.92;1.25;;;16.60;99.90;;;19.46;58.14;97488.00;4908859;29;20234;-46
2022/10/16 02:48:10;;;;;;;4.25;2.35;;;16.50;99.90;;;19.43;58.22;97485.72;4908190;29;20219;-47
2022/10/16 02:50:38;;;;;;;3.67;1.75;;;16.40;99.90;;;19.37;58.17;97475.81;4908400;29;20058;-46
2022/10/16 02:53:07;;;;;;;1.40;1.30;;;16.40;99.90;;;19.41;58.25;97482.41;4908682;29;20040;-48
2022/10/16 02:55:34;;;;;;;1.77;1.45;;;16.50;99.90;;;19.44;58.21;97486.53;4908456;29;20059;-45
2022/10/16 02:58:02;;;;;;;4.63;1.50;;;16.50;99.90;;;19.44;58.08;97500.03;4907897;29;20044;-45
2022/10/16 03:00:30;;;;;;;2.70;1.70;;;16.50;99.90;;;19.44;58.06;97500.03;4908322;29;20048;-46
2022/10/16 03:02:58;;;;;;;3.85;1.30;;;16.50;99.90;;;19.42;57.85;97491.34;4908283;29;20040;-45
2022/10/16 03:05:26;;;;;;;2.65;1.55;;;16.60;99.90;;;19.43;57.87;97491.13;4908157;29;20047;-43
2022/10/16 03:07:54;;;;;;;2.47;2.15;;;16.60;99.90;;;19.42;57.74;97485.94;4907959;29;20062;-45
2022/10/16 03:10:21;;;;;;;2.33;1.25;;;16.60;99.90;;;19.43;57.61;97490.31;4908304;29;20044;-48
2022/10/16 03:12:49;;;;;;;1.95;1.35;;;16.60;99.90;;;19.44;57.70;97487.38;4922892;29;20052;-45
2022/10/16 03:15:17;;;;;;;1.55;1.27;;;16.60;99.90;;;19.41;57.72;97479.72;4908259;29;20044;-45
2022/10/16 03:17:45;;;;;;;2.65;1.63;;;16.60;99.90;;;19.39;57.79;97484.50;4907640;29;20059;-46
2022/10/16 03:20:13;;;;;;;3.38;1.45;;;16.50;99.90;;;19.36;57.93;97487.66;4907753;29;20074;-44
2022/10/16 03:22:40;;;;;;;4.05;1.85;;;16.50;99.90;;;19.38;57.82;97493.66;4907962;29;20054;-48
2022/10/16 03:25:08;;;;;;;5.95;1.55;;;16.50;99.90;;;19.40;57.67;97496.13;4907794;29;20040;-43
2022/10/16 03:27:36;;;;;;;3.13;1.60;;;16.50;99.90;;;19.40;57.54;97504.22;4907273;29;20048;-44
2022/10/16 03:30:05;;;;;;;4.07;1.25;;;16.50;99.90;;;19.32;57.65;97496.41;4908234;29;20048;-46
2022/10/16 03:32:33;;;;;;;1.77;1.10;;;16.50;99.90;;;19.31;57.44;97492.91;4907796;29;20253;-42
2022/10/16 03:35:02;;;;;;;4.60;1.50;;;16.50;99.90;;;19.29;57.66;97495.00;4907818;29;20050;-42
2022/10/16 03:37:30;;;;;;;1.60;1.13;;;16.50;99.90;;;19.33;57.74;97484.56;4920247;29;20048;-44
2022/10/16 03:39:59;;;;;;;2.50;1.23;;;16.50;99.90;;;19.35;57.59;97490.56;4907097;29;20362;-45
2022/10/16 03:42:26;;;;;;;3.00;1.35;;;16.60;99.90;;;19.34;57.43;97499.72;4907653;29;20346;-43
2022/10/16 03:44:54;;;;;;;4.13;2.25;;;16.60;99.90;;;19.38;57.58;97503.63;4907827;29;20044;-44
2022/10/16 03:47:23;;;;;;;1.85;1.40;;;16.60;99.90;;;19.38;57.33;97498.22;4907201;29;20044;-44
2022/10/16 03:49:51;;;;;;;3.63;1.50;;;16.60;99.90;;;19.43;57.30;97498.41;4907446;29;20056;-45
2022/10/16 03:52:19;;;;;;;1.60;1.20;;;16.60;99.90;;;19.39;57.25;97497.19;4907361;29;20045;-46
2022/10/16 03:54:47;;;;;;;3.38;1.42;;;16.60;99.90;;;19.42;57.27;97494.84;4921935;29;20350;-47
2022/10/16 03:57:15;;;;;;;1.88;1.10;;;16.60;99.90;;;19.45;57.05;97493.59;4906921;29;20238;-47
2022/10/16 03:59:43;;;;;;;2.17;1.42;;;16.60;99.90;;;19.43;57.11;97493.81;4907376;29;20049;-44
2022/10/16 04:02:11;;;;;;;2.33;1.60;;;16.60;99.90;;;19.45;57.04;97497.13;4907213;29;20049;-46
2022/10/16 04:04:39;;;;;;;3.22;1.50;;;16.60;99.90;;;19.44;57.05;97498.19;4907063;29;20044;-47
2022/10/16 04:07:06;;;;;;;1.90;1.27;;;16.60;99.90;;;19.43;57.17;97501.91;4906833;29;20058;-46
2022/10/16 04:09:34;;;;;;;2.65;1.10;;;16.60;99.90;;;19.42;57.28;97499.44;4906970;29;20339;-43
2022/10/16 04:12:02;;;;;;;2.63;1.55;;;16.60;99.90;;;19.43;57.13;97493.00;4907197;29;20044;-43
2022/10/16 04:14:30;;;;;;;5.32;2.38;;;16.60;99.90;;;19.43;57.07;97493.00;4907039;29;20164;-46
2022/10/16 04:16:58;;;;;;;1.50;1.40;;;16.60;99.90;;;19.46;57.12;97492.53;4906627;29;20056;-45
2022/10/16 04:19:27;;;;;;;2.28;1.23;;;16.60;99.90;;;19.48;56.85;97493.13;4907117;29;20354;-43
2022/10/16 04:21:54;;;;;;;1.70;1.23;;;16.60;99.90;;;19.44;57.27;97489.22;4907076;29;20354;-46
2022/10/16 04:24:22;;;;;;;3.47;1.50;;;16.50;99.90;;;19.38;57.16;97490.13;4906879;29;20055;-43
2022/10/16 04:26:50;;;;;;;2.72;1.75;;;16.40;99.90;;;19.35;57.10;97494.09;4906632;29;20044;-45
2022/10/16 04:29:18;;;;;;;2.30;1.42;;;16.40;99.90;;;19.34;57.34;97503.22;4907128;29;20246;-43
2022/10/16 04:31:47;;;;;;;3.53;1.63;;;16.40;99.90;;;19.34;57.34;97510.50;4923108;29;20040;-43
2022/10/16 04:34:14;;;;;;;2.60;1.40;;;16.40;99.90;;;19.37;57.28;97510.09;4913460;29;20059;-45
2022/10/16 04:36:42;;;;;;;3.90;1.73;;;16.50;99.90;;;19.39;57.18;97502.59;4912817;29;20053;-44
2022/10/16 04:39:10;;;;;;;4.30;1.45;;;16.50;99.90;;;19.39;57.28;97508.81;4913648;29;20349;-43
2022/10/16 04:41:38;;;;;;;3.90;1.40;;;16.50;99.90;;;19.39;57.28;97508.81;4913107;29;20157;-45
2022/10/16 04:44:06;;;;;;;2.58;1.52;;;16.50;99.90;;;19.37;57.38;97510.91;4927418;29;20326;-45
2022/10/16 04:46:34;;;;;;;1.20;1.08;;;16.50;99.90;;;19.35;57.33;97513.00;4912713;29;20048;-46
2022/10/16 04:49:02;;;;;;;2.55;1.30;;;16.50;99.90;;;19.36;57.26;97521.91;4913298;29;20229;-48
2022/10/16 04:51:30;;;;;;;2.33;1.70;;;16.50;99.90;;;19.38;57.20;97534.13;4912405;29;20054;-43
2022/10/16 04:53:58;;;;;;;1.95;1.40;;;16.50;99.90;;;19.43;57.15;97534.31;4913105;29;20052;-44
2022/10/16 04:56:25;;;;;;;5.57;2.22;;;16.60;99.90;;;19.41;57.09;97530.19;4912619;29;20046;-45
2022/10/16 04:58:53;;;;;;;2.08;1.48;;;16.50;99.90;;;19.41;57.00;97530.19;4913090;29;20245;-46
2022/10/16 05:01:21;;;;;;;6.40;1.50;;;16.60;99.90;;;19.40;57.17;97529.34;4912979;29;20048;-44
2022/10/16 05:03:49;;;;;;;1.77;1.55;;;16.50;99.90;;;19.39;57.07;97535.81;4913504;29;20079;-45
2022/10/16 05:06:17;;;;;;;2.33;1.30;;;16.60;99.90;;;19.40;57.06;97532.03;4913022;29;20052;-44
2022/10/16 05:08:45;;;;;;;2.42;1.45;;;16.60;99.90;;;19.42;56.86;97538.03;4912592;29;20052;-46
2022/10/16 05:11:12;;;;;;;3.08;1.42;;;16.60;99.90;;;19.44;56.72;97530.56;4913013;29;20052;-42
2022/10/16 05:13:40;;;;;;;1.40;1.00;;;16.60;99.90;;;19.44;56.97;97530.56;4913282;29;20048;-46
2022/10/16 05:16:08;;;;;;;1.90;1.38;;;16.60;99.90;;;19.43;56.96;97523.50;4912858;29;20052;-45
2022/10/16 05:18:36;;;;;;;2.83;1.38;;;16.60;99.90;;;19.46;56.70;97524.94;4926977;29;20052;-44
2022/10/16 05:21:05;;;;;;;1.90;1.65;;;16.60;99.90;;;19.45;56.89;97534.91;4911599;29;20166;-46
2022/10/16 05:23:34;;;;;;;1.77;1.25;;;16.60;99.90;;;19.45;57.02;97532.22;4913026;29;20358;-42
2022/10/16 05:26:02;;;;;;;2.50;1.25;;;16.60;99.90;;;19.44;56.75;97535.13;4912794;29;20051;-45
2022/10/16 05:28:31;;;;;;;2.10;1.58;;;16.60;99.90;;;19.46;56.79;97527.63;4911942;29;20049;-47
2022/10/16 05:30:59;;;;;;;10.05;2.50;;;16.60;99.90;;;19.45;56.68;97536.78;4913147;29;20037;-45
2022/10/16 05:33:27;;;;;;;5.60;2.58;;;16.50;99.90;;;19.42;56.64;97537.22;4912767;29;20294;-43
2022/10/16 05:35:55;;;;;;;6.35;2.78;;;16.50;99.90;;;19.39;56.83;97538.50;4927309;29;20358;-47
2022/10/16 05:38:23;;;;;;;3.28;1.98;;;16.50;99.90;;;19.38;56.74;97530.63;4913125;29;20074;-44
2022/10/16 05:40:56;;;;;;;2.60;1.40;;;16.40;99.90;;;19.38;56.89;97544.09;4912662;29;20048;-48
2022/10/16 05:43:23;;;;;;;2.60;1.55;;;16.50;99.90;;;19.38;56.75;97542.22;4910850;29;20052;-47
2022/10/16 05:46:02;;;;;;;2.22;1.63;;;16.50;99.90;;;19.36;56.81;97538.94;4909697;29;20079;-43
2022/10/16 05:48:30;;;;;;;2.40;1.38;;;16.50;99.90;;;19.35;57.00;97542.69;4909637;29;20055;-44
2022/10/16 05:51:01;;;;;;;2.97;1.30;;;16.50;99.90;;;19.34;56.94;97556.41;4908875;29;20054;-43
2022/10/16 05:53:32;;;;;;;2.33;1.40;;;16.40;99.90;;;19.33;57.04;97555.56;4909930;29;20052;-44
2022/10/16 05:56:00;;;;;;;1.65;1.20;;;16.40;99.90;;;19.34;56.86;97559.91;4909680;29;20346;-42
2022/10/16 05:58:33;;;;;;;2.90;1.25;;;16.40;99.90;;;19.32;56.98;97561.19;4909031;29;20250;-48
2022/10/16 06:01:14;;;;;;;4.60;2.33;;;16.40;99.90;;;19.31;57.08;97560.38;4909379;29;20376;-43
2022/10/16 06:03:43;;;;;;;6.90;1.80;;;16.40;99.90;;;19.27;57.03;97553.75;4909554;29;20074;-44
2022/10/16 06:06:16;;;;;;;5.15;2.65;;;16.30;99.90;;;19.27;57.20;97553.75;4909372;29;20047;-44
2022/10/16 06:08:48;;;;;;;3.67;2.65;;;16.30;99.90;;;19.30;57.29;97547.91;4908977;29;20044;-46
2022/10/16 06:11:23;;;;;;;5.22;2.85;;;16.40;99.90;;;19.31;57.39;97554.13;4909262;29;20292;-48
2022/10/16 06:13:56;;;;;;;4.35;2.78;;;16.40;99.90;;;19.32;57.05;97562.00;4909192;29;20049;-44
2022/10/16 06:16:25;;;;;;;4.63;2.20;;;16.40;99.90;;;19.35;56.91;97569.69;4909108;29;20048;-42
2022/10/16 06:18:59;;;;;;;5.18;2.67;;;16.40;99.90;;;19.34;56.94;97567.19;4909324;29;20056;-44
2022/10/16 06:21:28;;;;;;;3.22;1.73;;;16.40;99.90;;;19.35;57.17;97566.97;4909111;29;20052;-43
2022/10/16 06:23:58;;;;;;;3.25;1.60;;;16.40;99.90;;;19.32;57.13;97556.59;4909343;29;20056;-45
2022/10/16 06:26:29;;;;;;;1.98;1.55;;;16.40;99.90;;;19.33;57.23;97569.06;4905642;29;20059;-43
2022/10/16 06:28:59;;;;;;;3.38;2.15;;;16.40;99.90;;;19.32;57.20;97570.09;4907686;29;20049;-46
2022/10/16 06:31:30;;;;;;;4.97;1.38;;;16.40;99.90;;;19.33;57.12;97563.69;4908079;29;20049;-44
2022/10/16 06:33:58;;;;;;;3.10;2.15;;;16.40;99.90;;;19.37;57.17;97569.47;4907863;29;20055;-45
2022/10/16 06:36:27;;;;;;;2.03;1.52;;;16.50;99.90;;;19.36;57.33;97567.81;4907755;29;20052;-45
2022/10/16 06:38:56;;;;;;;3.17;1.80;;;16.50;99.90;;;19.39;57.29;97578.16;4921462;29;20061;-44
2022/10/16 06:41:24;;;;;;;3.38;2.00;;;16.50;99.90;;;19.39;57.36;97587.09;4907608;29;20075;-43
2022/10/16 06:43:52;;;;;;;2.22;1.55;;;16.50;99.90;;;19.39;57.12;97597.88;4907714;29;20044;-46
2022/10/16 06:46:23;;;;;;;1.77;1.55;;;16.50;99.90;;;19.41;57.12;97601.19;4907859;29;20068;-47
2022/10/16 06:48:53;;;;;;;4.50;1.83;;;16.50;99.90;;;19.44;57.22;97599.91;4907891;29;20068;-47
2022/10/16 06:51:24;;;;;;;3.28;2.30;;;16.60;99.90;;;19.46;57.11;97605.91;4908625;29;20052;-43
2022/10/16 06:53:56;;;;;;;2.75;1.52;;;16.60;99.90;;;19.42;57.33;97610.94;4906193;29;20052;-45
2022/10/16 06:56:33;;;;;;;2.38;1.77;;;16.50;99.90;;;19.45;57.34;97609.69;4907033;29;20249;-44
2022/10/16 06:59:02;;;;;;;3.78;1.45;;;16.60;99.90;;;19.44;57.41;97608.88;4907134;29;20226;-42
2022/10/16 07:01:30;;;;;;;3.20;1.60;;;16.60;99.90;;;19.46;57.49;97609.47;4921969;29;20052;-43
2022/10/16 07:03:59;;;;;;;3.15;1.27;;;16.60;99.90;;;19.51;57.36;97613.38;4907410;29;20062;-45
2022/10/16 07:06:32;;;;;;;1.67;1.20;;;16.70;99.90;;;19.55;57.20;97617.28;4921013;29;20051;-48
2022/10/16 07:09:04;;;;;;;3.08;1.40;;;16.70;99.90;;;19.58;57.17;97624.94;4907456;29;20245;-45
2022/10/16 07:11:33;;;;;;;3.20;1.20;;;16.70;99.90;;;19.62;57.01;97645.91;4907127;29;20360;-46
2022/10/16 07:14:01;;;;;;;2.97;2.00;;;16.70;99.90;;;19.65;56.98;97636.53;4907644;29;20048;-46
2022/10/16 07:16:32;;;;;;;2.97;2.22;;;16.80;99.90;;;19.68;57.05;97636.91;4906521;29;20056;-44
2022/10/16 07:19:02;;;;;;;2.70;1.83;;;16.90;99.90;;;19.72;57.03;97637.34;4906804;29;20048;-46
2022/10/16 07:21:37;;;;;;;2.70;2.05;;;16.90;99.90;;;19.75;56.73;97644.97;4906949;29;20048;-46
2022/10/16 07:24:11;;;;;;;2.30;1.40;;;16.90;99.90;;;19.74;57.04;97640.66;4907426;29;20246;-49
2022/10/16 07:26:40;;;;;;;2.88;1.50;;;16.90;99.90;;;19.77;56.84;97658.28;4906338;29;20048;-46
2022/10/16 07:29:17;;;;;;;2.53;1.58;;;16.90;99.90;;;19.77;56.72;97656.41;4907095;29;20052;-48
2022/10/16 07:31:45;;;;;;;1.90;1.27;;;16.90;99.90;;;19.77;57.02;97651.00;4906689;29;20049;-46
2022/10/16 07:34:16;;;;;;;2.47;1.67;;;16.90;99.90;;;19.78;57.06;97652.66;4907177;29;20056;-44
2022/10/16 07:36:47;;;;;;;5.75;3.40;;;16.90;99.90;;;19.76;56.99;97652.06;4906122;29;20064;-44
2022/10/16 07:39:14;;;;;;;4.30;2.53;;;16.80;99.90;;;19.79;56.94;97646.22;4907221;29;20057;-42
2022/10/16 07:41:42;;;;;;;6.25;3.42;;;16.90;99.90;;;19.84;56.73;97649.06;4906724;29;20235;-47
2022/10/16 07:44:10;;;;;;;5.65;2.95;;;17.00;99.90;;;19.88;56.88;97656.75;4920006;29;20048;-44
2022/10/16 07:46:38;;;;;;;5.95;3.33;;;17.00;99.90;;;19.95;56.80;97657.50;4905709;29;20052;-50
2022/10/16 07:49:06;;;;;;;5.13;3.03;;;17.10;99.90;;;19.98;56.57;97660.59;4906953;29;20053;-43
2022/10/16 07:51:34;;;;;;;5.63;2.92;;;17.20;99.90;;;20.02;56.69;97659.09;4906384;29;20044;-45
2022/10/16 07:54:02;;;;;;;3.28;2.45;;;17.30;99.90;;;20.10;56.55;97663.41;4906581;29;20052;-46
2022/10/16 07:56:32;;;;;;;3.58;1.77;;;17.30;99.90;;;20.17;56.63;97671.47;4907162;29;20238;-47
2022/10/16 07:59:00;;;;;;;2.67;1.52;;;17.40;99.90;;;20.24;56.35;97667.66;4910459;29;20058;-47
2022/10/16 08:01:28;;;;;;;4.30;2.90;;;17.50;99.90;;;20.33;56.60;97672.75;4925021;29;20048;-45
2022/10/16 08:03:56;;;;;;;6.45;3.33;;;17.60;99.90;;;20.41;56.15;97672.47;4925392;29;20067;-44
2022/10/16 08:06:24;;;;;;;3.05;1.85;;;17.70;99.90;;;20.47;55.84;97676.97;4925206;29;20040;-44
2022/10/16 08:08:56;;;;;;;4.72;1.92;;;17.80;99.90;;;20.50;55.93;97671.13;4925793;29;20081;-48
2022/10/16 08:11:24;;;;;;;4.22;1.50;;;17.80;99.90;;;20.53;56.07;97680.66;4926219;29;20054;-43
2022/10/16 08:13:51;;;;;;;5.93;1.73;;;17.80;99.90;;;20.59;55.72;97682.50;4925822;29;20067;-45
2022/10/16 08:16:20;;;;;;;1.40;1.13;;;18.00;99.90;;;20.63;55.61;97675.59;4925561;29;20237;-47
2022/10/16 08:18:51;;;;;;;2.55;1.52;;;18.00;99.90;;;20.69;55.28;97684.72;4925636;29;20048;-42
2022/10/16 08:21:23;;;;;;;3.95;1.55;;;18.00;98.50;;;20.73;55.34;97692.13;4909712;29;20048;-46
2022/10/16 08:23:53;;;;;;;1.75;1.30;;;18.10;99.90;;;20.77;55.04;97700.63;4925859;29;20059;-47
2022/10/16 08:26:27;;;;;;;1.52;1.23;;;18.10;99.90;;;20.82;54.88;97715.13;4925475;29;20050;-46
2022/10/16 08:28:59;;;;;;;1.30;1.20;;;18.20;99.90;;;20.80;54.64;97708.28;4925718;29;20045;-44
2022/10/16 08:31:30;;;;;;;2.72;1.50;;;18.20;99.00;;;20.81;54.81;97702.66;4924092;29;20052;-46
2022/10/16 08:33:59;;;;;;;2.75;1.40;;;18.20;99.50;;;20.83;54.67;97708.66;4925900;29;20063;-42
2022/10/16 08:36:27;;;;;;;4.28;1.40;;;18.20;99.10;;;20.83;55.13;97708.66;4925077;29;20044;-44
2022/10/16 08:38:55;;;;;;;1.55;1.40;;;18.20;99.50;;;20.88;54.88;97710.72;4924939;29;20067;-47
2022/10/16 08:41:58;;;;;;;2.15;1.45;;;18.30;99.20;;;20.91;54.83;97715.66;4914255;29;20157;-44
2022/10/16 08:44:57;;;;;;;5.72;2.47;;;18.30;98.80;;;20.96;54.90;97706.88;4920816;29;20040;-43
2022/10/16 08:47:56;;;;;;;7.07;4.60;;;18.30;99.30;;;21.02;54.87;97714.06;4920737;29;20056;-46
2022/10/16 08:50:29;;;;;;;5.45;3.42;;;18.40;98.60;;;21.09;54.46;97708.56;4920969;29;20058;-42
2022/10/16 08:52:58;;;;;;;3.65;2.63;;;18.40;99.60;;;21.11;54.96;97712.72;4921550;29;20050;-46
2022/10/16 08:55:50;;;;;;;3.35;2.00;;;18.50;99.70;;;21.18;54.37;97707.22;4920095;29;20079;-47
2022/10/16 08:58:27;;;;;;;5.10;2.17;;;18.50;99.50;;;21.21;54.62;97694.06;4922789;29;20058;-45
2022/10/16 09:00:59;;;;;;;3.72;2.22;;;18.60;99.20;;;21.22;54.56;97711.94;4921182;29;20062;-45
2022/10/16 09:03:45;;;;;;;5.10;3.38;;;18.60;99.00;;;21.25;54.87;97713.38;4922134;29;20249;-42
2022/10/16 09:06:21;;;;;;;7.70;4.35;;;18.60;99.20;;;21.31;54.10;97717.88;4921964;29;20050;-43
2022/10/16 09:09:14;;;;;;;7.22;2.92;;;18.70;98.70;;;21.35;54.25;97712.84;4921766;29;20050;-44
2022/10/16 09:12:02;;;;;;;4.90;2.97;;;18.70;97.50;;;21.37;54.36;97718.84;4905549;29;20277;-46
2022/10/16 09:15:11;;;;;;;4.90;2.90;;;18.70;97.90;;;21.34;54.50;97724.72;4919921;29;20067;-44
2022/10/16 09:18:13;;;;;;;10.30;5.60;;;18.70;97.50;;;21.33;54.36;97726.59;4920569;29;20100;-45
2022/10/16 09:20:51;;;;;;;14.23;6.07;;;18.70;98.40;;;21.28;54.60;97729.16;4924207;29;20060;-45
2022/10/16 09:23:27;;;;;;;7.53;4.07;;;18.60;98.70;;;21.24;54.57;97736.06;4922688;29;20070;-49
2022/10/16 09:25:58;;;;;;;5.22;2.50;;;18.60;99.00;;;21.22;54.55;97744.41;4925532;29;20253;-48
2022/10/16 09:28:26;;;;;;;4.20;1.98;;;18.60;98.60;;;21.21;54.06;97739.25;4925039;29;20050;-45
2022/10/16 09:30:54;;;;;;;3.00;2.10;;;18.60;98.20;;;21.27;54.03;97738.34;4924981;29;20044;-45
2022/10/16 09:33:36;;;;;;;2.97;2.13;;;18.60;97.50;;;21.31;54.13;97742.25;4925409;29;20054;-50
2022/10/16 09:36:06;;;;;;;5.35;2.22;;;18.70;96.80;;;21.37;54.06;97754.03;4925264;29;20048;-44
2022/10/16 09:38:36;;;;;;;2.40;1.70;;;18.70;97.10;;;21.42;53.87;97748.75;4925073;29;20237;-48
2022/10/16 09:41:22;;;;;;;7.15;2.08;;;18.80;96.60;;;21.48;53.74;97747.03;4925694;29;20056;-44
2022/10/16 09:44:04;;;;;;;3.22;1.80;;;18.90;95.40;;;21.54;54.05;97746.13;4923108;29;20044;-44
2022/10/16 09:46:35;;;;;;;3.03;1.60;;;18.90;96.30;;;21.58;53.52;97760.88;4922371;29;20050;-47
2022/10/16 09:49:29;;;;;;;5.40;2.22;;;19.00;96.30;;;21.61;53.84;97766.66;4924062;29;20235;-44
2022/10/16 09:52:15;;;;;;;3.05;2.20;;;19.00;94.50;;;21.68;53.18;97754.94;4921448;29;20055;-45
2022/10/16 09:54:58;;;;;;;4.65;1.77;;;19.10;94.20;;;21.68;53.09;97765.75;4904587;29;20047;-48
2022/10/16 09:57:26;;;;;;;2.53;1.60;;;19.10;93.70;;;21.72;52.77;97775.06;4920662;29;20055;-48
2022/10/16 09:59:58;;;;;;;2.40;1.60;;;19.20;93.90;;;21.71;52.52;97770.69;4924175;29;20101;-46
2022/10/16 10:02:40;;;;;;;4.38;1.70;;;19.10;92.80;;;21.68;52.71;97772.00;4922837;29;20062;-44
2022/10/16 10:05:24;;;;;;;2.88;1.75;;;19.20;91.50;;;21.75;52.60;97782.72;4920830;29;20052;-45
2022/10/16 10:08:05;;;;;;;4.32;2.50;;;19.20;91.60;;;21.80;52.73;97770.16;4919512;29;20047;-44
2022/10/16 10:10:42;;;;;;;2.15;1.60;;;19.20;91.70;;;21.90;52.41;97776.91;4919818;29;20277;-47
2022/10/16 10:13:24;;;;;;;3.53;1.85;;;19.40;91.80;;;21.96;52.25;97781.38;4920005;29;20048;-44
2022/10/16 10:15:53;;;;;;;5.57;1.90;;;19.40;90.60;;;21.99;52.22;97783.66;4921734;29;20048;-45
2022/10/16 10:18:23;;;;;;;2.35;1.80;;;19.40;91.60;;;21.99;52.39;97781.75;4924346;29;20375;-50
2022/10/16 10:21:02;;;;;;;2.80;1.50;;;19.40;91.60;;;22.04;51.99;97786.47;4925087;29;20056;-48
2022/10/16 10:23:31;;;;;;;3.10;2.00;;;19.50;90.30;;;22.05;52.30;97787.31;4924254;29;20062;-48
2022/10/16 10:26:32;;;;;;;2.90;1.70;;;19.40;91.40;;;22.13;52.02;97792.41;4924511;29;20253;-48
2022/10/16 10:29:37;;;;;;;4.25;1.77;;;19.50;90.40;;;22.24;51.69;97791.63;4919895;29;20066;-47
2022/10/16 10:32:25;;;;;;;2.70;2.10;;;19.70;89.30;;;22.36;51.68;97797.91;4927967;29;20257;-47
2022/10/16 10:35:15;;;;;;;4.85;1.45;;;19.80;90.50;;;22.46;51.96;97799.22;4927401;29;20056;-51
2022/10/16 10:38:17;;;;;;;3.35;1.70;;;19.90;89.50;;;22.56;51.71;97788.63;4926289;29;20367;-49
2022/10/16 10:41:16;;;;;;;2.60;2.20;;;20.00;88.90;;;22.67;51.84;97785.09;4926725;29;20333;-48
2022/10/16 10:44:34;;;;;;;2.25;2.05;;;20.10;89.30;;;22.79;51.57;97790.50;4927462;29;20044;-47
2022/10/16 10:47:50;;;;;;;3.00;2.22;;;20.20;87.70;;;22.90;51.48;97795.13;4895709;29;20060;-49